Terminal Aerodrome Forecast
Issued by NWS Charleston, WV

Current Version | Previous Version | Text Only | Print | Product List | Glossary Off
Versions: 1 2 3 4 5 6 7 8 9 10 11 12 13 14 15 16 17 18 19 20 21 22 23 24

000
FTUS41 KRLX 250910 AAA
TAFCRW
TAF AMD
KCRW 250910Z 2509/2606 18002KT P6SM BKN070
     FM251600 22006KT P6SM BKN050
     FM251800 21007KT P6SM SCT050
     FM260000 VRB02KT P6SM FEW080=

USA.gov is the U.S. government's official web portal to all federal, state and local government web resources and services.